Time;durP1;ratioP1;P1;durP2;ratioP2;P2;SDS_P1;SDS_P2;PMS_P1;PMS_P2;Temp;Humidity;BMP_temperature;BMP_pressure;BME280_temperature;BME280_humidity;BME280_pressure;Samples;Min_cycle;Max_cycle;Signal;HPM_P1;HPM_P2
2023/11/29 00:00:38;;;;;;;4.55;2.53;;;;;;;-5.54;100.00;97432.41;6104847;19;20314;-73
2023/11/29 00:02:38;;;;;;;3.33;2.08;;;;;;;-5.46;100.00;97430.91;6103237;19;20003;-73
2023/11/29 00:04:39;;;;;;;3.33;2.13;;;;;;;-5.35;100.00;97439.59;6103337;19;20037;-73
2023/11/29 00:06:39;;;;;;;2.67;2.00;;;;;;;-5.30;100.00;97436.78;6103942;19;20003;-73
2023/11/29 00:08:39;;;;;;;3.95;2.10;;;;;;;-5.19;100.00;97432.81;6103129;19;20034;-73
2023/11/29 00:10:40;;;;;;;3.42;1.98;;;;;;;-5.10;100.00;97425.59;6103719;19;20029;-73
2023/11/29 00:12:40;;;;;;;3.95;2.70;;;;;;;-4.98;100.00;97433.16;6103390;19;20007;-73
2023/11/29 00:14:40;;;;;;;4.20;2.50;;;;;;;-4.91;100.00;97428.16;6101107;19;20042;-73
2023/11/29 00:16:41;;;;;;;3.65;2.10;;;;;;;-4.85;100.00;97425.03;6104016;19;20021;-73
2023/11/29 00:18:41;;;;;;;4.20;2.13;;;;;;;-4.85;100.00;97421.56;6102531;19;20074;-73
2023/11/29 00:20:42;;;;;;;5.00;2.50;;;;;;;-4.75;100.00;97421.31;6104537;19;20014;-73
2023/11/29 00:22:42;;;;;;;3.25;2.38;;;;;;;-4.74;100.00;97419.41;6104331;19;20054;-73
2023/11/29 00:24:49;;;;;;;4.05;2.28;;;;;;;-4.70;100.00;97409.63;6103214;19;20011;-73
2023/11/29 00:26:49;;;;;;;4.00;2.22;;;;;;;-4.63;100.00;97412.69;6102998;19;20050;-73
2023/11/29 00:28:53;;;;;;;4.47;2.42;;;;;;;-4.60;100.00;97417.47;6102571;19;20309;-73
2023/11/29 00:30:53;;;;;;;4.35;2.30;;;;;;;-4.57;100.00;97417.66;6103238;19;20002;-73
2023/11/29 00:32:54;;;;;;;4.88;2.50;;;;;;;-4.59;100.00;97417.16;6103046;19;20024;-73
2023/11/29 00:34:55;;;;;;;4.00;2.60;;;;;;;-4.60;100.00;97410.19;6101146;19;20062;-74
2023/11/29 00:36:56;;;;;;;3.13;2.00;;;;;;;-4.58;100.00;97399.06;6104515;19;20446;-74
2023/11/29 00:38:56;;;;;;;3.83;2.50;;;;;;;-4.57;100.00;97397.97;6102087;19;20017;-73
2023/11/29 00:40:57;;;;;;;4.43;2.92;;;;;;;-4.61;100.00;97392.38;6102940;19;20006;-73
2023/11/29 00:42:57;;;;;;;5.65;2.85;;;;;;;-4.59;100.00;97394.78;6103893;19;20003;-73
2023/11/29 00:44:58;;;;;;;4.28;2.65;;;;;;;-4.56;100.00;97396.84;6104032;19;20436;-74
2023/11/29 00:46:58;;;;;;;4.10;2.13;;;;;;;-4.63;100.00;97391.09;6102905;19;20006;-73
2023/11/29 00:48:58;;;;;;;5.25;2.80;;;;;;;-4.66;100.00;97397.91;6102924;19;20293;-73
2023/11/29 00:50:59;;;;;;;4.63;2.60;;;;;;;-4.71;100.00;97389.94;6102928;19;20393;-74
2023/11/29 00:52:59;;;;;;;3.60;2.38;;;;;;;-4.74;100.00;97384.34;6104052;19;20018;-73
2023/11/29 00:55:00;;;;;;;2.80;2.00;;;;;;;-4.82;100.00;97378.56;6102903;19;20018;-73
2023/11/29 00:57:00;;;;;;;3.88;2.83;;;;;;;-4.88;100.00;97378.97;6103354;19;20018;-73
2023/11/29 00:59:00;;;;;;;4.43;3.00;;;;;;;-4.95;100.00;97375.91;6102299;19;20013;-73
2023/11/29 01:01:02;;;;;;;3.40;2.28;;;;;;;-5.02;100.00;97373.63;6103394;19;20011;-73
2023/11/29 01:03:02;;;;;;;4.00;2.00;;;;;;;-5.11;100.00;97378.94;6104204;19;20007;-73
2023/11/29 01:05:03;;;;;;;4.97;2.97;;;;;;;-5.22;100.00;97377.56;6102436;19;20011;-73
2023/11/29 01:07:03;;;;;;;3.80;2.40;;;;;;;-5.23;100.00;97373.25;6102368;19;20013;-73
2023/11/29 01:09:06;;;;;;;3.00;2.15;;;;;;;-5.27;100.00;97371.50;6102320;19;20012;-74
2023/11/29 01:11:06;;;;;;;4.57;2.42;;;;;;;-5.36;100.00;97360.63;6103501;19;20405;-73
2023/11/29 01:13:06;;;;;;;4.22;2.67;;;;;;;-5.45;100.00;97360.53;6102978;19;20007;-73
2023/11/29 01:15:07;;;;;;;3.95;2.42;;;;;;;-5.56;100.00;97363.72;6101230;19;20032;-74
2023/11/29 01:17:08;;;;;;;4.15;2.55;;;;;;;-5.58;100.00;97361.34;6103976;19;20040;-74
2023/11/29 01:19:08;;;;;;;3.58;2.20;;;;;;;-5.61;100.00;97361.94;6102254;19;20021;-73
2023/11/29 01:21:12;;;;;;;4.00;2.45;;;;;;;-5.59;100.00;97364.34;6102205;19;20446;-74
2023/11/29 01:23:12;;;;;;;5.82;2.70;;;;;;;-5.58;100.00;97361.34;6103066;19;20486;-73
2023/11/29 01:25:13;;;;;;;5.05;2.83;;;;;;;-5.55;100.00;97349.94;6102112;19;20011;-74
2023/11/29 01:27:13;;;;;;;4.50;2.92;;;;;;;-5.53;100.00;97349.66;6099097;19;20023;-73
2023/11/29 01:29:14;;;;;;;5.38;2.85;;;;;;;-5.56;100.00;97351.03;6101562;19;20014;-74
2023/11/29 01:31:16;;;;;;;3.50;2.40;;;;;;;-5.60;100.00;97347.38;6101229;19;20364;-74
2023/11/29 01:33:17;;;;;;;3.92;2.03;;;;;;;-5.63;100.00;97350.63;6102711;19;20007;-74
2023/11/29 01:35:17;;;;;;;4.50;2.50;;;;;;;-5.67;100.00;97357.75;6101498;19;20820;-74
2023/11/29 01:37:17;;;;;;;3.30;2.17;;;;;;;-5.74;100.00;97352.75;6102584;19;20574;-73
2023/11/29 01:39:18;;;;;;;8.00;3.10;;;;;;;-5.78;100.00;97357.16;6101397;19;20017;-73
2023/11/29 01:41:18;;;;;;;5.05;2.47;;;;;;;-5.84;100.00;97354.84;6102220;19;20011;-73
2023/11/29 01:43:18;;;;;;;5.30;2.45;;;;;;;-5.88;100.00;97354.63;6102089;19;20018;-74
2023/11/29 01:45:19;;;;;;;5.13;2.92;;;;;;;-5.92;100.00;97351.00;6101581;19;20290;-73
2023/11/29 01:47:19;;;;;;;4.20;2.42;;;;;;;-6.00;100.00;97359.75;6101960;19;20014;-74
2023/11/29 01:49:20;;;;;;;4.10;2.67;;;;;;;-6.04;100.00;97346.09;6100780;19;20094;-73
2023/11/29 01:51:20;;;;;;;4.88;2.58;;;;;;;-6.02;100.00;97353.88;6102586;19;20018;-74
2023/11/29 01:53:23;;;;;;;4.88;2.85;;;;;;;-6.02;100.00;97345.81;6101462;19;20030;-74
2023/11/29 01:55:27;;;;;;;4.47;2.65;;;;;;;-6.08;100.00;97345.09;6102217;19;20543;-74
2023/11/29 01:57:27;;;;;;;5.20;2.75;;;;;;;-6.13;100.00;97339.78;6099576;19;20007;-73
2023/11/29 01:59:28;;;;;;;5.13;2.60;;;;;;;-6.21;100.00;97345.84;6100897;19;20073;-74
2023/11/29 02:01:28;;;;;;;5.38;2.72;;;;;;;-6.18;100.00;97342.59;6102031;19;20007;-73
2023/11/29 02:03:29;;;;;;;4.82;2.85;;;;;;;-6.24;100.00;97339.19;6102346;19;20365;-73
2023/11/29 02:05:29;;;;;;;3.85;2.30;;;;;;;-6.26;100.00;97337.88;6101507;19;20647;-73
2023/11/29 02:07:30;;;;;;;3.45;2.10;;;;;;;-6.31;100.00;97346.03;6100749;19;20864;-74
2023/11/29 02:09:31;;;;;;;4.10;2.55;;;;;;;-6.37;100.00;97337.28;6101785;19;20017;-73
2023/11/29 02:11:33;;;;;;;5.40;2.70;;;;;;;-6.35;100.00;97332.41;6101746;19;20020;-73
2023/11/29 02:13:33;;;;;;;5.80;2.50;;;;;;;-6.43;100.00;97333.06;6100882;19;20313;-74
2023/11/29 02:15:34;;;;;;;5.30;3.20;;;;;;;-6.51;100.00;97333.75;6101669;19;20007;-73
2023/11/29 02:17:34;;;;;;;5.30;2.78;;;;;;;-6.46;100.00;97330.94;6099959;19;20041;-74
2023/11/29 02:19:35;;;;;;;4.18;2.47;;;;;;;-6.58;100.00;97328.75;6101801;19;20041;-74
2023/11/29 02:21:35;;;;;;;5.03;2.65;;;;;;;-6.53;100.00;97323.28;6100777;19;20054;-74
2023/11/29 02:23:48;;;;;;;5.00;2.42;;;;;;;-6.55;100.00;97324.66;6100983;19;20391;-74
2023/11/29 02:25:49;;;;;;;;;;;;;;;-6.48;100.00;97322.38;6102658;19;20353;-74
2023/11/29 02:27:49;;;;;;;4.20;2.08;;;;;;;-6.48;100.00;97308.13;6090892;19;19979;-74
2023/11/29 02:29:49;;;;;;;4.97;2.83;;;;;;;-6.47;100.00;97305.13;6100937;19;20458;-74
2023/11/29 02:31:50;;;;;;;4.88;2.33;;;;;;;-6.48;100.00;97311.63;6100383;19;20570;-74
2023/11/29 02:33:50;;;;;;;6.40;2.90;;;;;;;-6.45;100.00;97310.22;6100365;19;20430;-74
2023/11/29 02:35:51;;;;;;;4.93;2.42;;;;;;;-6.43;100.00;97302.66;6100306;19;20011;-74
2023/11/29 02:37:51;;;;;;;4.50;2.47;;;;;;;-6.36;100.00;97303.88;6098809;19;20009;-74
2023/11/29 02:39:51;;;;;;;4.32;2.40;;;;;;;-6.34;100.00;97306.28;6099136;19;20006;-74
2023/11/29 02:41:53;;;;;;;4.22;2.83;;;;;;;-6.28;100.00;97297.00;6100851;19;20002;-73
2023/11/29 02:43:55;;;;;;;5.18;2.83;;;;;;;-6.27;100.00;97295.91;6100046;19;19998;-74
2023/11/29 02:45:55;;;;;;;6.22;2.83;;;;;;;-6.29;100.00;97290.00;6098896;19;20053;-74
2023/11/29 02:47:56;;;;;;;5.68;2.95;;;;;;;-6.34;100.00;97292.81;6099457;19;20006;-73
2023/11/29 02:49:56;;;;;;;5.07;2.65;;;;;;;-6.49;100.00;97285.81;6100677;19;20034;-73
2023/11/29 02:51:56;;;;;;;4.60;2.40;;;;;;;-6.58;100.00;97285.69;6100645;19;20265;-74
2023/11/29 02:53:57;;;;;;;4.88;2.30;;;;;;;-6.58;100.00;97277.63;6099645;19;20411;-73
2023/11/29 02:55:57;;;;;;;4.13;2.40;;;;;;;-6.65;100.00;97285.28;6099959;19;20288;-74
2023/11/29 02:57:58;;;;;;;4.32;2.83;;;;;;;-6.70;100.00;97281.88;6096957;19;20062;-74
2023/11/29 02:59:59;;;;;;;4.57;2.90;;;;;;;-6.68;100.00;97269.75;6100919;19;20002;-74
2023/11/29 03:02:00;;;;;;;5.25;2.78;;;;;;;-6.72;100.00;97263.34;6100101;19;20006;-74
2023/11/29 03:04:00;;;;;;;5.72;2.85;;;;;;;-6.70;100.00;97269.25;6099849;19;20002;-73
2023/11/29 03:06:00;;;;;;;4.03;2.65;;;;;;;-6.83;100.00;97275.38;6099413;19;20074;-73
2023/11/29 03:08:01;;;;;;;3.85;2.60;;;;;;;-6.78;100.00;97264.53;6099718;19;20005;-74
2023/11/29 03:10:02;;;;;;;6.38;3.03;;;;;;;-6.84;100.00;97271.88;6099749;19;20062;-74
2023/11/29 03:12:07;;;;;;;5.93;3.10;;;;;;;-6.84;100.00;97269.19;6100037;19;20010;-74
2023/11/29 03:14:07;;;;;;;4.72;2.83;;;;;;;-6.86;100.00;97271.38;6099229;19;20003;-74
2023/11/29 03:16:07;;;;;;;5.30;2.90;;;;;;;-6.87;100.00;97267.09;6099541;19;20029;-74
2023/11/29 03:18:08;;;;;;;7.80;2.67;;;;;;;-6.81;100.00;97259.72;6098664;19;19999;-74
2023/11/29 03:20:09;;;;;;;6.22;3.10;;;;;;;-6.79;100.00;97255.66;6100483;19;20038;-74
2023/11/29 03:22:09;;;;;;;4.32;3.00;;;;;;;-6.72;100.00;97232.94;6099000;19;20006;-74
2023/11/29 03:24:09;;;;;;;4.30;2.50;;;;;;;-6.62;100.00;97233.59;6098921;19;19995;-74
2023/11/29 03:26:10;;;;;;;6.43;3.05;;;;;;;-6.59;100.00;97232.97;6098570;19;20282;-74
2023/11/29 03:28:10;;;;;;;7.70;3.85;;;;;;;-6.56;100.00;97232.38;6093264;19;20002;-74
2023/11/29 03:30:11;;;;;;;5.90;3.33;;;;;;;-6.48;100.00;97225.50;6091741;19;20006;-74
2023/11/29 03:32:12;;;;;;;7.13;4.07;;;;;;;-6.38;100.00;97228.00;6092489;19;20424;-74
2023/11/29 03:34:14;;;;;;;9.18;4.22;;;;;;;-6.22;100.00;97223.91;6089913;19;20311;-74
2023/11/29 03:36:14;;;;;;;7.03;4.15;;;;;;;-5.96;100.00;97228.78;6092264;19;20007;-74
2023/11/29 03:38:15;;;;;;;7.97;3.92;;;;;;;-5.67;100.00;97221.13;6091352;19;20010;-74
2023/11/29 03:40:15;;;;;;;7.20;3.65;;;;;;;-5.52;100.00;97221.88;6092224;19;20009;-74
2023/11/29 03:42:15;;;;;;;8.63;4.53;;;;;;;-5.37;100.00;97208.06;6092685;19;20011;-74
2023/11/29 03:44:16;;;;;;;6.85;3.40;;;;;;;-5.21;100.00;97211.19;6091474;19;20049;-74
2023/11/29 03:46:16;;;;;;;9.15;5.07;;;;;;;-5.18;100.00;97205.19;6091998;19;20010;-74
2023/11/29 03:48:16;;;;;;;7.95;4.13;;;;;;;-5.13;100.00;97197.75;6091488;19;20014;-74
2023/11/29 03:50:17;;;;;;;7.53;4.07;;;;;;;-5.07;100.00;97195.72;6092425;19;20082;-74
2023/11/29 03:52:19;;;;;;;8.30;4.28;;;;;;;-5.03;100.00;97195.91;6097890;19;20340;-74
2023/11/29 03:54:19;;;;;;;6.80;4.22;;;;;;;-4.93;100.00;97188.34;6097316;19;20478;-74
2023/11/29 03:56:19;;;;;;;8.23;3.95;;;;;;;-4.79;100.00;97185.59;6098345;19;20018;-74
2023/11/29 03:58:20;;;;;;;6.97;4.13;;;;;;;-4.70;100.00;97170.22;6094380;19;20089;-74
2023/11/29 04:00:21;;;;;;;10.38;4.63;;;;;;;-4.65;100.00;97164.66;6095810;19;20006;-74
2023/11/29 04:02:22;;;;;;;6.60;4.20;;;;;;;-4.60;100.00;97166.44;6098314;19;20266;-74
2023/11/29 04:04:22;;;;;;;6.72;3.97;;;;;;;-4.48;100.00;97163.16;6096950;19;20070;-74
2023/11/29 04:06:26;;;;;;;6.80;3.75;;;;;;;-4.51;100.00;97156.47;6096787;19;20046;-74
2023/11/29 04:08:27;;;;;;;7.57;3.80;;;;;;;-4.45;100.00;97146.34;6096642;19;20768;-74
2023/11/29 04:10:29;;;;;;;7.78;3.55;;;;;;;-4.43;100.00;97146.81;6096743;19;20010;-74
2023/11/29 04:12:29;;;;;;;6.53;3.97;;;;;;;-4.41;100.00;97155.41;6097238;19;20029;-74
2023/11/29 04:14:30;;;;;;;6.65;4.05;;;;;;;-4.44;100.00;97151.44;6096489;19;20508;-74
2023/11/29 04:16:30;;;;;;;6.70;4.10;;;;;;;-4.46;100.00;97155.56;6094533;19;20419;-74
2023/11/29 04:18:30;;;;;;;5.45;3.90;;;;;;;-4.44;100.00;97156.03;6094165;19;20046;-74
2023/11/29 04:20:31;;;;;;;6.75;4.22;;;;;;;-4.39;100.00;97153.16;6097202;19;20085;-74
2023/11/29 04:22:31;;;;;;;7.78;4.20;;;;;;;-4.35;100.00;97143.34;6096112;19;20006;-73
2023/11/29 04:24:33;;;;;;;7.65;3.63;;;;;;;-4.32;100.00;97140.81;6096814;19;20011;-74
2023/11/29 04:26:38;;;;;;;5.72;3.70;;;;;;;-4.34;100.00;97134.94;6091907;19;20331;-74
2023/11/29 04:28:39;;;;;;;6.93;4.28;;;;;;;-4.28;100.00;97136.38;6103501;19;20226;-74
2023/11/29 04:30:39;;;;;;;5.55;3.70;;;;;;;-4.33;100.00;97133.81;6104337;19;20010;-74
2023/11/29 04:32:39;;;;;;;6.45;4.32;;;;;;;-4.34;100.00;97126.84;6104773;19;20003;-74
2023/11/29 04:34:40;;;;;;;5.40;3.67;;;;;;;-4.29;100.00;97120.50;6103389;19;20030;-74
2023/11/29 04:36:40;;;;;;;6.47;3.65;;;;;;;-4.27;100.00;97124.47;6103983;19;20007;-74
2023/11/29 04:38:41;;;;;;;6.72;3.88;;;;;;;-4.25;100.00;97114.13;6102559;19;20106;-74
2023/11/29 04:40:41;;;;;;;5.45;3.05;;;;;;;-4.12;100.00;97112.44;6104523;19;20013;-74
2023/11/29 04:42:41;;;;;;;8.18;4.10;;;;;;;-4.05;100.00;97111.97;6104376;19;20011;-74
2023/11/29 04:44:42;;;;;;;6.57;3.92;;;;;;;-4.10;100.00;97112.91;6103940;19;20014;-74
2023/11/29 04:46:44;;;;;;;6.90;4.10;;;;;;;-4.02;100.00;97117.50;6104145;19;20462;-74
2023/11/29 04:48:45;;;;;;;5.30;3.70;;;;;;;-4.01;100.00;97127.22;6103851;19;20025;-74
2023/11/29 04:50:45;;;;;;;6.32;4.32;;;;;;;-3.94;100.00;97115.16;6102404;19;20422;-74
2023/11/29 04:52:45;;;;;;;5.82;3.92;;;;;;;-3.91;100.00;97119.91;6103506;19;20537;-74
2023/11/29 04:54:46;;;;;;;7.97;4.10;;;;;;;-3.91;100.00;97114.50;6101970;19;20010;-74
2023/11/29 04:56:46;;;;;;;7.22;3.83;;;;;;;-3.91;100.00;97101.00;6102736;19;20539;-74
2023/11/29 04:58:47;;;;;;;7.53;3.83;;;;;;;-3.86;100.00;97103.53;6100433;19;20233;-74
2023/11/29 05:00:48;;;;;;;6.47;3.95;;;;;;;-3.83;100.00;97106.38;6101988;19;20011;-74
2023/11/29 05:02:48;;;;;;;6.00;3.88;;;;;;;-3.75;100.00;97099.41;6101552;19;20984;-74
2023/11/29 05:04:48;;;;;;;7.03;3.70;;;;;;;-3.76;100.00;97087.78;6098106;19;20021;-74
2023/11/29 05:06:49;;;;;;;7.15;4.70;;;;;;;-3.78;100.00;97105.44;6103123;19;20002;-74
2023/11/29 05:08:49;;;;;;;6.40;4.18;;;;;;;-3.83;100.00;97094.78;6099962;19;20015;-74
2023/11/29 05:10:49;;;;;;;5.15;3.67;;;;;;;-3.82;100.00;97096.38;6100691;19;20302;-74
2023/11/29 05:12:50;;;;;;;7.03;4.03;;;;;;;-3.83;100.00;97103.69;6102740;19;20051;-74
2023/11/29 05:14:50;;;;;;;6.15;3.80;;;;;;;-3.85;100.00;97094.31;6101530;19;20051;-74
2023/11/29 05:16:51;;;;;;;6.35;3.70;;;;;;;-3.72;100.00;97093.38;6102794;19;20006;-74
2023/11/29 05:18:51;;;;;;;5.45;3.55;;;;;;;-3.53;100.00;97080.31;6102783;19;20013;-73
2023/11/29 05:20:52;;;;;;;6.18;3.70;;;;;;;-3.47;100.00;97086.34;6101152;19;20002;-74
2023/11/29 05:22:52;;;;;;;5.15;3.22;;;;;;;-3.35;100.00;97081.06;6101070;19;20007;-73
2023/11/29 05:24:53;;;;;;;3.97;3.40;;;;;;;-3.37;100.00;97077.91;6099801;19;20033;-73
2023/11/29 05:26:54;;;;;;;7.43;3.85;;;;;;;-3.32;100.00;97082.31;6097297;19;20403;-73
2023/11/29 05:28:54;;;;;;;6.40;3.63;;;;;;;-3.39;100.00;97088.25;6098412;19;20339;-74
2023/11/29 05:30:55;;;;;;;6.28;3.90;;;;;;;-3.44;100.00;97075.69;6095295;19;20018;-73
2023/11/29 05:32:55;;;;;;;6.93;4.18;;;;;;;-3.49;100.00;97078.53;6098416;19;20005;-73
2023/11/29 05:34:56;;;;;;;4.53;3.58;;;;;;;-3.44;100.00;97086.50;6098860;19;20013;-73
2023/11/29 05:36:56;;;;;;;5.45;3.38;;;;;;;-3.35;100.00;97067.53;6098226;19;20503;-74
2023/11/29 05:38:57;;;;;;;5.63;3.22;;;;;;;-3.42;100.00;97076.13;6102091;19;20372;-73
2023/11/29 05:40:57;;;;;;;4.28;3.20;;;;;;;-3.31;100.00;97062.28;6100068;19;20009;-73
2023/11/29 05:42:58;;;;;;;6.43;3.38;;;;;;;-3.29;100.00;97060.84;6102300;19;20025;-73
2023/11/29 05:44:58;;;;;;;5.60;3.50;;;;;;;-3.31;100.00;97065.81;6100243;19;20018;-74
2023/11/29 05:46:59;;;;;;;5.63;3.67;;;;;;;-3.29;100.00;97051.94;6099085;19;20082;-74
2023/11/29 05:48:59;;;;;;;5.13;3.33;;;;;;;-3.30;100.00;97063.88;6094715;19;20018;-74
2023/11/29 05:51:00;;;;;;;4.55;2.85;;;;;;;-3.30;100.00;97061.97;6098733;19;20002;-74
2023/11/29 05:53:01;;;;;;;5.95;3.20;;;;;;;-3.19;100.00;97067.81;6100683;19;20003;-74
2023/11/29 05:55:01;;;;;;;4.93;2.78;;;;;;;-3.19;100.00;97065.91;6099735;19;20009;-73
2023/11/29 05:57:03;;;;;;;4.72;3.00;;;;;;;-3.16;100.00;97076.06;6102049;19;20086;-73
2023/11/29 05:59:03;;;;;;;5.20;3.25;;;;;;;-3.13;100.00;97069.25;6101099;19;20002;-73
2023/11/29 06:01:07;;;;;;;4.63;3.08;;;;;;;-3.12;100.00;97073.53;6102457;19;20006;-73
2023/11/29 06:03:07;;;;;;;3.95;3.05;;;;;;;-3.13;100.00;97070.03;6046695;19;20030;-73
2023/11/29 06:05:08;;;;;;;5.45;3.25;;;;;;;-3.03;100.00;97059.97;6100847;19;20362;-73
2023/11/29 06:07:08;;;;;;;4.90;2.55;;;;;;;-2.97;100.00;97067.59;6102394;19;20007;-73
2023/11/29 06:09:09;;;;;;;5.00;2.80;;;;;;;-2.92;100.00;97072.03;6100642;19;20031;-73
2023/11/29 06:11:09;;;;;;;4.93;3.22;;;;;;;-2.96;100.00;97074.59;6101076;19;20010;-74
2023/11/29 06:13:10;;;;;;;4.72;3.05;;;;;;;-2.92;100.00;97072.03;6100093;19;19999;-73
2023/11/29 06:15:12;;;;;;;6.05;2.80;;;;;;;-2.97;100.00;97070.31;6101150;19;20381;-73
2023/11/29 06:17:13;;;;;;;5.03;3.50;;;;;;;-2.98;100.00;97055.19;6099616;19;20439;-73
2023/11/29 06:19:13;;;;;;;4.55;2.90;;;;;;;-3.00;100.00;97067.44;6100862;19;20017;-73
2023/11/29 06:21:14;;;;;;;6.63;3.63;;;;;;;-3.02;100.00;97064.28;6100939;19;20002;-73
2023/11/29 06:23:14;;;;;;;5.07;3.60;;;;;;;-3.01;100.00;97076.69;6101594;19;20010;-73
2023/11/29 06:25:14;;;;;;;7.95;3.13;;;;;;;-3.02;100.00;97085.91;6101652;19;20473;-73
2023/11/29 06:27:16;;;;;;;4.82;3.13;;;;;;;-2.83;100.00;97072.78;6100633;19;20002;-73
2023/11/29 06:29:17;;;;;;;5.90;3.08;;;;;;;-2.86;100.00;97071.53;6101456;19;20459;-74
2023/11/29 06:31:17;;;;;;;6.32;3.38;;;;;;;-2.85;100.00;97066.91;6100987;19;20267;-73
2023/11/29 06:33:17;;;;;;;4.93;3.50;;;;;;;-2.87;100.00;97074.56;6101326;19;20585;-73
2023/11/29 06:35:18;;;;;;;5.05;3.25;;;;;;;-2.91;100.00;97074.41;6100959;19;20017;-73
2023/11/29 06:37:18;;;;;;;4.90;2.92;;;;;;;-2.91;100.00;97071.69;6099879;19;20002;-73
2023/11/29 06:39:19;;;;;;;4.63;3.25;;;;;;;-2.93;100.00;97065.81;6099150;19;20030;-74
2023/11/29 06:41:19;;;;;;;5.85;3.30;;;;;;;-2.94;100.00;97075.06;6101199;19;20003;-73
2023/11/29 06:43:20;;;;;;;5.03;3.08;;;;;;;-2.85;100.00;97064.19;6101360;19;20003;-73
2023/11/29 06:45:20;;;;;;;5.57;3.60;;;;;;;-2.86;100.00;97076.94;6100117;19;20364;-73
2023/11/29 06:47:20;;;;;;;5.60;3.17;;;;;;;-2.86;100.00;97066.13;6101232;19;20026;-73
2023/11/29 06:49:21;;;;;;;5.55;3.28;;;;;;;-2.96;100.00;97061.06;6099416;19;20033;-73
2023/11/29 06:51:21;;;;;;;5.22;3.58;;;;;;;-2.95;100.00;97076.19;6098815;19;20012;-73
2023/11/29 06:53:21;;;;;;;7.47;3.78;;;;;;;-2.91;100.00;97068.19;6100995;19;20078;-73
2023/11/29 06:55:22;;;;;;;5.40;3.70;;;;;;;-2.92;100.00;97077.44;6101129;19;20007;-73
2023/11/29 06:57:23;;;;;;;6.72;3.88;;;;;;;-2.94;100.00;97074.28;6100584;19;20003;-73
2023/11/29 06:59:23;;;;;;;7.90;4.40;;;;;;;-2.93;100.00;97084.75;6099385;19;20026;-73
2023/11/29 07:01:24;;;;;;;6.93;3.75;;;;;;;-2.93;100.00;97079.34;6101006;19;20011;-73
2023/11/29 07:03:27;;;;;;;7.68;3.90;;;;;;;-2.96;100.00;97063.78;6100346;19;20043;-74
2023/11/29 07:05:27;;;;;;;6.65;4.18;;;;;;;-3.07;100.00;97073.34;6100190;19;20021;-73
2023/11/29 07:07:27;;;;;;;6.68;3.47;;;;;;;-3.05;100.00;97071.13;6099727;19;20015;-73
2023/11/29 07:09:28;;;;;;;7.25;4.28;;;;;;;-3.03;100.00;97078.91;6099926;19;20015;-73
2023/11/29 07:11:30;;;;;;;6.80;3.95;;;;;;;-3.14;100.00;97073.88;6099548;19;20002;-73
2023/11/29 07:13:31;;;;;;;7.55;4.28;;;;;;;-3.11;100.00;97077.81;6099367;19;20007;-73
2023/11/29 07:15:32;;;;;;;6.53;4.13;;;;;;;-3.14;100.00;97081.97;6099872;19;20003;-73
2023/11/29 07:17:32;;;;;;;5.80;4.18;;;;;;;-3.08;100.00;97074.47;6099113;19;20021;-73
2023/11/29 07:19:33;;;;;;;6.43;3.67;;;;;;;-3.08;100.00;97070.97;6099388;19;20007;-73
2023/11/29 07:21:33;;;;;;;7.85;4.57;;;;;;;-3.13;100.00;97064.63;6100207;19;20015;-73
2023/11/29 07:23:34;;;;;;;6.35;4.00;;;;;;;-3.16;100.00;97078.00;6099978;19;20002;-73
2023/11/29 07:25:34;;;;;;;5.97;4.10;;;;;;;-3.18;100.00;97069.41;6104187;19;20006;-73
2023/11/29 07:27:34;;;;;;;6.70;4.03;;;;;;;-3.17;100.00;97052.06;6096382;19;20011;-73
2023/11/29 07:29:35;;;;;;;7.55;4.00;;;;;;;-3.18;100.00;97056.69;6106260;19;20015;-73
2023/11/29 07:31:35;;;;;;;5.80;3.60;;;;;;;-3.24;100.00;97063.38;6104091;19;20011;-73
2023/11/29 07:33:36;;;;;;;8.48;4.18;;;;;;;-3.24;100.00;97063.38;6104926;19;20007;-73
2023/11/29 07:35:36;;;;;;;7.82;4.40;;;;;;;-3.33;100.00;97065.31;6105084;19;20103;-73
2023/11/29 07:37:37;;;;;;;8.25;4.40;;;;;;;-3.35;100.00;97055.94;6104362;19;20014;-73
2023/11/29 07:39:37;;;;;;;7.22;4.47;;;;;;;-3.26;100.00;97059.41;6104807;19;20023;-73
2023/11/29 07:41:37;;;;;;;7.30;4.43;;;;;;;-3.23;100.00;97062.25;6105311;19;20007;-73
2023/11/29 07:43:38;;;;;;;7.05;4.43;;;;;;;-3.18;100.00;97064.78;6103584;19;20019;-73
2023/11/29 07:45:38;;;;;;;6.43;4.53;;;;;;;-3.04;100.00;97072.72;6104865;19;20011;-73
2023/11/29 07:47:38;;;;;;;8.50;4.75;;;;;;;-3.07;100.00;97073.34;6103021;19;20007;-73
2023/11/29 07:49:39;;;;;;;7.55;4.20;;;;;;;-3.07;100.00;97067.13;6104669;19;20006;-73
2023/11/29 07:51:40;;;;;;;8.73;5.35;;;;;;;-3.13;100.00;97074.66;6103873;19;20003;-73
2023/11/29 07:53:40;;;;;;;8.60;4.45;;;;;;;-3.04;100.00;97082.75;6105020;19;20014;-73
2023/11/29 07:55:41;;;;;;;8.52;4.50;;;;;;;-3.09;100.00;97072.88;6104959;19;20011;-73
2023/11/29 07:57:41;;;;;;;8.10;4.60;;;;;;;-3.12;100.00;97077.03;6104516;19;19999;-73
2023/11/29 07:59:41;;;;;;;6.70;3.95;;;;;;;-3.14;100.00;97063.03;6104509;19;20030;-73
2023/11/29 08:01:42;;;;;;;6.53;4.28;;;;;;;-3.07;100.00;97094.19;6103929;19;20014;-73
2023/11/29 08:03:42;;;;;;;7.70;4.70;;;;;;;-2.99;100.00;97077.94;6104120;19;20109;-74
2023/11/29 08:05:42;;;;;;;8.48;5.00;;;;;;;-2.94;100.00;97075.06;6102380;19;20003;-73
2023/11/29 08:07:43;;;;;;;8.68;4.88;;;;;;;-2.90;100.00;97077.91;6103395;19;20125;-73
2023/11/29 08:09:44;;;;;;;8.32;4.72;;;;;;;-2.74;100.00;97080.88;6105358;19;20429;-73
2023/11/29 08:11:45;;;;;;;7.45;4.75;;;;;;;-2.66;100.00;97071.91;6103640;19;20017;-73
2023/11/29 08:13:45;;;;;;;7.00;4.43;;;;;;;-2.58;100.00;97073.78;6103794;19;20561;-73
2023/11/29 08:15:46;;;;;;;7.25;4.43;;;;;;;-2.48;100.00;97065.31;6103413;19;20076;-73
2023/11/29 08:17:46;;;;;;;9.70;4.88;;;;;;;-2.42;100.00;97063.97;6102637;19;20003;-73
2023/11/29 08:19:46;;;;;;;9.40;5.07;;;;;;;-2.31;100.00;97067.13;6103719;19;20466;-74
2023/11/29 08:21:47;;;;;;;10.25;4.63;;;;;;;-2.24;100.00;97066.56;6104179;19;20331;-73
2023/11/29 08:23:47;;;;;;;9.40;4.97;;;;;;;-2.24;100.00;97061.94;6102353;19;20505;-73
2023/11/29 08:25:47;;;;;;;8.18;4.47;;;;;;;-2.18;100.00;97067.97;6103330;19;20354;-73
2023/11/29 08:27:48;;;;;;;11.63;5.40;;;;;;;-2.10;100.00;97067.13;6098023;19;19999;-73
2023/11/29 08:29:49;;;;;;;7.97;4.57;;;;;;;-2.13;100.00;97059.66;6097290;19;20823;-73
2023/11/29 08:31:49;;;;;;;8.18;4.00;;;;;;;-2.13;100.00;97054.25;6095522;19;20006;-73
2023/11/29 08:33:50;;;;;;;10.82;4.57;;;;;;;-2.13;100.00;97062.38;6097060;19;21030;-73
2023/11/29 08:35:50;;;;;;;9.75;5.25;;;;;;;-2.11;100.00;97060.91;6095521;19;20014;-73
2023/11/29 08:37:50;;;;;;;8.48;4.43;;;;;;;-2.01;100.00;97046.16;6096140;19;20323;-73
2023/11/29 08:39:53;;;;;;;7.57;4.43;;;;;;;-1.90;100.00;97060.09;6096920;19;20325;-73
2023/11/29 08:41:53;;;;;;;;;;;;;;;-1.89;100.00;97059.00;6097769;19;20017;-73
2023/11/29 08:43:54;;;;;;;8.35;4.50;;;;;;;-1.81;100.00;97061.63;6096051;19;19982;-73
2023/11/29 08:45:54;;;;;;;11.57;5.68;;;;;;;-1.81;100.00;97053.50;6096741;19;20639;-73
2023/11/29 08:47:54;;;;;;;9.93;5.38;;;;;;;-1.74;100.00;97056.47;6095548;19;20007;-73
2023/11/29 08:49:55;;;;;;;10.27;5.82;;;;;;;-1.66;100.00;97071.06;6096770;19;20017;-73
2023/11/29 08:51:55;;;;;;;10.50;5.10;;;;;;;-1.61;100.00;97065.44;6095885;19;20011;-73
2023/11/29 08:53:56;;;;;;;9.27;5.50;;;;;;;-1.66;100.00;97054.78;6096256;19;20026;-73
2023/11/29 08:55:56;;;;;;;11.00;5.97;;;;;;;-1.72;100.00;97062.34;6096335;19;20538;-73
2023/11/29 08:57:57;;;;;;;9.60;5.68;;;;;;;-1.69;100.00;97069.03;6096052;19;20359;-73
2023/11/29 08:59:57;;;;;;;10.57;6.20;;;;;;;-1.69;100.00;97055.47;6096071;19;20018;-73
2023/11/29 09:01:58;;;;;;;7.13;4.53;;;;;;;-1.65;100.00;97048.25;6096448;19;20010;-73
2023/11/29 09:03:58;;;;;;;9.95;5.00;;;;;;;-1.59;100.00;97046.13;6096227;19;20031;-73
2023/11/29 09:06:00;;;;;;;12.30;7.47;;;;;;;-1.56;100.00;97042.75;6096444;19;20018;-73
2023/11/29 09:08:00;;;;;;;9.65;5.28;;;;;;;-1.59;100.00;97041.50;6094152;19;20082;-73
2023/11/29 09:10:05;;;;;;;11.77;5.22;;;;;;;-1.61;100.00;97049.16;6096615;19;20018;-73
2023/11/29 09:12:05;;;;;;;9.43;5.75;;;;;;;-1.61;100.00;97041.03;6094668;19;20013;-73
2023/11/29 09:14:06;;;;;;;10.73;5.75;;;;;;;-1.59;100.00;97036.06;6093441;19;20067;-74
2023/11/29 09:16:07;;;;;;;9.45;6.10;;;;;;;-1.46;100.00;97050.47;6094925;19;20007;-73
2023/11/29 09:18:07;;;;;;;14.45;6.57;;;;;;;-1.34;100.00;97036.13;6094221;19;20292;-73
2023/11/29 09:20:08;;;;;;;10.23;5.85;;;;;;;-1.19;100.00;97027.34;6096614;19;20006;-73